createdAt,value
2019-04-06T00:00:46.761Z,52.27
2019-04-06T00:03:14.991Z,52.27
2019-04-06T00:05:43.226Z,51.53
2019-04-06T00:08:11.464Z,56.50
2019-04-06T00:10:39.689Z,53.83
2019-04-06T00:13:07.915Z,51.05
2019-04-06T00:15:36.161Z,45.90
2019-04-06T00:18:04.392Z,53.60
2019-04-06T00:20:32.679Z,48.05
2019-04-06T00:23:00.894Z,50.43
2019-04-06T00:25:29.138Z,48.10
2019-04-06T00:27:57.372Z,45.83
2019-04-06T00:30:25.678Z,57.73
2019-04-06T00:32:58.359Z,49.23
2019-04-06T00:35:26.620Z,53.45
2019-04-06T00:37:54.837Z,51.92
2019-04-06T00:40:23.117Z,51.30
2019-04-06T00:42:51.397Z,47.38
2019-04-06T00:45:19.723Z,46.73
2019-04-06T00:47:47.939Z,49.25
2019-04-06T00:50:16.184Z,49.77
2019-04-06T00:52:44.445Z,44.33
2019-04-06T00:55:12.683Z,50.98
2019-04-06T00:57:40.989Z,51.40
2019-04-06T01:00:09.321Z,50.38
2019-04-06T01:02:37.572Z,47.78
2019-04-06T01:05:06.374Z,47.70
2019-04-06T01:07:34.772Z,45.50
2019-04-06T01:10:03.110Z,47.70
2019-04-06T01:12:31.411Z,50.10
2019-04-06T01:14:59.652Z,50.52
2019-04-06T01:17:28.230Z,49.38
2019-04-06T01:19:56.441Z,46.77
2019-04-06T01:22:24.684Z,45.83
2019-04-06T01:24:52.911Z,51.08
2019-04-06T01:27:21.153Z,46.08
2019-04-06T01:29:49.384Z,46.05
2019-04-06T01:32:17.632Z,47.53
2019-04-06T01:34:45.872Z,51.05
2019-04-06T01:37:14.113Z,46.00
2019-04-06T01:39:42.335Z,47.98
2019-04-06T01:42:10.578Z,46.45
2019-04-06T01:44:38.817Z,50.12
2019-04-06T01:47:07.084Z,44.93
2019-04-06T01:49:35.369Z,51.50
2019-04-06T01:52:04.168Z,54.08
2019-04-06T01:54:32.400Z,42.93
2019-04-06T01:57:00.640Z,49.48
2019-04-06T01:59:28.869Z,46.30
2019-04-06T02:02:17.227Z,45.63
2019-04-06T02:04:45.452Z,46.10
2019-04-06T02:07:13.694Z,46.73
2019-04-06T02:09:41.916Z,46.13
2019-04-06T02:12:10.157Z,46.68
2019-04-06T02:14:38.392Z,44.90
2019-04-06T02:17:06.681Z,44.98
2019-04-06T02:19:34.928Z,43.70
2019-04-06T02:22:03.160Z,41.65
2019-04-06T02:24:31.397Z,42.78
2019-04-06T02:26:59.636Z,41.70
2019-04-06T02:29:27.884Z,44.85
2019-04-06T02:31:57.829Z,46.58
2019-04-06T02:34:33.796Z,42.80
2019-04-06T02:37:06.486Z,46.75
2019-04-06T02:39:36.410Z,43.87
2019-04-06T02:42:22.700Z,43.65
2019-04-06T02:44:50.908Z,45.85
2019-04-06T02:47:19.154Z,42.03
2019-04-06T02:49:47.383Z,46.68
2019-04-06T02:52:15.666Z,48.35
2019-04-06T02:54:44.048Z,44.42
2019-04-06T02:57:12.392Z,43.70
2019-04-06T02:59:40.682Z,41.48
2019-04-06T03:02:08.920Z,45.03
2019-04-06T03:04:37.182Z,45.63
2019-04-06T03:07:05.412Z,43.85
2019-04-06T03:09:33.639Z,38.70
2019-04-06T03:12:02.022Z,41.85
2019-04-06T03:14:30.388Z,43.08
2019-04-06T03:16:58.620Z,47.33
2019-04-06T03:19:26.862Z,48.28
2019-04-06T03:21:55.096Z,43.83
2019-04-06T03:24:23.332Z,49.20
2019-04-06T03:27:01.083Z,49.30
2019-04-06T03:29:21.505Z,46.70
2019-04-06T03:31:49.771Z,48.10
2019-04-06T03:34:21.197Z,50.92
2019-04-06T03:36:47.973Z,46.90
2019-04-06T03:39:16.221Z,47.25
2019-04-06T03:41:44.451Z,48.68
2019-04-06T03:44:12.676Z,45.45
2019-04-06T03:46:41.226Z,50.38
2019-04-06T03:49:09.602Z,50.80
2019-04-06T03:51:37.908Z,46.30
2019-04-06T03:54:06.163Z,47.15
2019-04-06T03:56:34.443Z,45.65
2019-04-06T03:59:02.688Z,44.85
2019-04-06T04:01:30.914Z,43.48
2019-04-06T04:03:59.158Z,46.65
2019-04-06T04:06:27.449Z,46.18
2019-04-06T04:08:55.726Z,52.13
2019-04-06T04:11:24.028Z,45.50
2019-04-06T04:13:52.314Z,47.60
2019-04-06T04:16:20.738Z,44.60
2019-04-06T04:18:49.054Z,46.77
2019-04-06T04:21:17.322Z,48.10
2019-04-06T04:23:45.564Z,42.13
2019-04-06T04:26:13.866Z,45.25
2019-04-06T04:28:42.173Z,50.30
2019-04-06T04:31:10.405Z,46.95
2019-04-06T04:33:38.652Z,50.28
2019-04-06T04:36:06.925Z,45.23
2019-04-06T04:38:35.210Z,46.77
2019-04-06T04:41:04.174Z,46.73
2019-04-06T04:43:32.507Z,54.00
2019-04-06T04:46:00.815Z,48.68
2019-04-06T04:48:29.144Z,48.23
2019-04-06T04:50:57.387Z,51.83
2019-04-06T04:53:25.613Z,49.30
2019-04-06T04:55:53.916Z,52.58
2019-04-06T04:58:22.217Z,47.45
2019-04-06T05:00:50.457Z,47.98
2019-04-06T05:03:19.320Z,57.13
2019-04-06T05:05:47.723Z,47.35
2019-04-06T05:08:16.009Z,51.28
2019-04-06T05:10:44.385Z,51.77
2019-04-06T05:13:12.671Z,48.68
2019-04-06T05:15:49.324Z,48.85
2019-04-06T05:18:17.566Z,48.10
2019-04-06T05:20:45.796Z,52.83
2019-04-06T05:23:14.020Z,51.13
2019-04-06T05:25:42.256Z,52.65
2019-04-06T05:28:10.488Z,51.35
2019-04-06T05:30:40.700Z,48.98
2019-04-06T05:33:08.888Z,48.15
2019-04-06T05:35:37.245Z,48.83
2019-04-06T05:38:05.549Z,45.33
2019-04-06T05:40:33.786Z,45.70
2019-04-06T05:43:02.007Z,46.53
2019-04-06T05:45:30.336Z,50.95
2019-04-06T05:47:58.555Z,50.10
2019-04-06T05:50:26.804Z,52.60
2019-04-06T05:52:55.111Z,43.15
2019-04-06T05:55:24.480Z,51.63
2019-04-06T05:58:02.939Z,48.95
2019-04-06T06:00:23.099Z,51.95
2019-04-06T06:02:51.359Z,46.13
2019-04-06T06:05:19.716Z,49.33
2019-04-06T06:07:48.090Z,49.05
2019-04-06T06:10:16.338Z,51.20
2019-04-06T06:12:44.560Z,50.65
2019-04-06T06:15:12.791Z,49.30
2019-04-06T06:17:41.036Z,46.77
2019-04-06T06:20:09.329Z,50.08
2019-04-06T06:22:37.568Z,45.25
2019-04-06T06:25:06.842Z,46.15
2019-04-06T06:27:35.138Z,45.90
2019-04-06T06:30:05.368Z,45.88
2019-04-06T06:32:33.674Z,52.27
2019-04-06T06:35:01.910Z,45.98
2019-04-06T06:37:30.173Z,47.38
2019-04-06T06:39:58.392Z,50.50
2019-04-06T06:42:26.404Z,49.10
2019-04-06T06:44:54.645Z,53.33
2019-04-06T06:47:22.972Z,47.93
2019-04-06T06:49:51.252Z,52.65
2019-04-06T06:52:19.970Z,52.98
2019-04-06T06:54:48.192Z,49.50
2019-04-06T06:57:18.081Z,49.80
2019-04-06T06:59:46.304Z,56.55
2019-04-06T07:02:14.722Z,49.90
2019-04-06T07:04:42.968Z,59.18
2019-04-06T07:07:11.249Z,49.55
2019-04-06T07:09:39.529Z,53.42
2019-04-06T07:12:07.779Z,54.27
2019-04-06T07:14:36.027Z,55.92
2019-04-06T07:17:04.323Z,55.98
2019-04-06T07:19:32.612Z,52.58
2019-04-06T07:22:00.853Z,55.15
2019-04-06T07:24:29.084Z,50.17
2019-04-06T07:26:57.548Z,58.33
2019-04-06T07:29:25.890Z,59.88
2019-04-06T07:31:54.163Z,56.63
2019-04-06T07:34:22.388Z,61.05
2019-04-06T07:36:50.654Z,56.60
2019-04-06T07:39:18.908Z,50.73
2019-04-06T07:41:47.241Z,52.73
2019-04-06T07:44:15.619Z,58.48
2019-04-06T07:46:43.947Z,54.25
2019-04-06T07:49:12.270Z,55.00
2019-04-06T07:51:40.538Z,57.88
2019-04-06T07:54:08.815Z,54.95
2019-04-06T07:56:37.056Z,60.25
2019-04-06T07:59:05.362Z,55.30
2019-04-06T08:01:33.696Z,59.00
2019-04-06T08:04:01.993Z,57.98
2019-04-06T08:06:30.234Z,58.30
2019-04-06T08:08:58.553Z,55.10
2019-04-06T08:11:26.869Z,53.38
2019-04-06T08:13:55.108Z,57.53
2019-04-06T08:16:23.354Z,56.33
2019-04-06T08:18:51.605Z,51.13
2019-04-06T08:21:19.815Z,53.50
2019-04-06T08:23:48.052Z,52.45
2019-04-06T08:26:16.342Z,51.28
2019-04-06T08:28:44.753Z,54.40
2019-04-06T08:31:13.033Z,52.78
2019-04-06T08:33:41.275Z,51.25
2019-04-06T08:36:09.529Z,49.75
2019-04-06T08:38:37.762Z,52.15
2019-04-06T08:41:06.010Z,50.88
2019-04-06T08:43:34.238Z,49.55
2019-04-06T08:46:02.479Z,50.67
2019-04-06T08:48:30.711Z,47.93
2019-04-06T08:50:59.193Z,52.40
2019-04-06T08:53:27.550Z,54.48
2019-04-06T08:55:55.805Z,51.15
2019-04-06T08:58:24.048Z,56.83
2019-04-06T09:00:52.431Z,54.30
2019-04-06T09:03:20.692Z,51.83
2019-04-06T09:05:48.940Z,50.40
2019-04-06T09:08:17.173Z,53.40
2019-04-06T09:10:45.422Z,53.87
2019-04-06T09:13:13.648Z,52.38
2019-04-06T09:15:41.901Z,53.52
2019-04-06T09:18:10.198Z,53.50
2019-04-06T09:20:38.458Z,51.13
2019-04-06T14:52:41.628Z,16.95
2019-04-06T14:55:14.390Z,15.80
2019-04-06T14:58:01.235Z,18.20
2019-04-06T15:00:37.293Z,15.68
2019-04-06T15:03:07.272Z,21.25
2019-04-06T15:05:54.028Z,14.73
2019-04-06T15:08:26.938Z,15.70
2019-04-06T15:11:09.101Z,19.32
2019-04-06T15:13:54.206Z,15.50
2019-04-06T15:16:33.386Z,16.67
2019-04-06T15:19:03.674Z,17.35
2019-04-06T15:21:50.507Z,18.30
2019-04-06T15:24:20.402Z,15.63
2019-04-06T15:27:06.951Z,15.18
2019-04-06T15:29:40.858Z,17.92
2019-04-06T15:35:01.141Z,15.53
2019-04-06T15:37:31.015Z,16.07
2019-04-06T15:40:06.873Z,18.12
2019-04-06T15:42:36.742Z,15.95
2019-04-06T15:45:22.616Z,15.90
2019-04-06T15:47:55.471Z,18.20
2019-04-06T15:50:28.104Z,19.42
2019-04-06T15:52:57.981Z,14.28
2019-04-06T15:55:42.861Z,16.40
2019-04-06T15:58:31.065Z,15.75
2019-04-06T16:01:00.949Z,16.52
2019-04-06T16:03:46.144Z,18.55
2019-04-06T16:06:31.203Z,16.20
2019-04-06T16:09:17.249Z,16.12
2019-04-06T16:11:53.525Z,15.65
2019-04-06T16:14:23.726Z,14.75
2019-04-06T16:16:56.901Z,18.12
2019-04-06T16:19:26.809Z,15.23
2019-04-06T16:21:59.650Z,16.35
2019-04-06T16:24:32.304Z,15.30
2019-04-06T16:27:03.822Z,15.83
2019-04-06T16:29:34.086Z,15.85
2019-04-06T16:32:11.498Z,16.20
2019-04-06T16:34:41.596Z,16.15
2019-04-06T16:37:15.000Z,17.52
2019-04-06T16:39:47.748Z,16.15
2019-04-06T16:42:23.402Z,13.15
2019-04-06T16:45:05.284Z,14.60
2019-04-06T16:47:35.153Z,14.03
2019-04-06T16:50:05.033Z,13.28
2019-04-06T16:52:53.161Z,12.47
2019-04-06T16:55:35.652Z,16.82
2019-04-06T16:58:22.116Z,14.33
2019-04-06T17:00:58.141Z,12.82
2019-04-06T17:03:28.022Z,15.10
2019-04-06T17:05:58.285Z,15.48
2019-04-06T17:08:28.249Z,17.57
2019-04-06T17:11:01.113Z,20.08
2019-04-06T17:13:34.385Z,14.80
2019-04-06T17:16:13.577Z,14.83
2019-04-06T17:19:00.077Z,19.02
2019-04-06T17:21:33.157Z,15.13
2019-04-06T17:24:09.366Z,17.25
2019-04-06T17:26:39.436Z,17.50
2019-04-06T17:29:25.907Z,16.32
2019-04-06T17:32:11.114Z,16.62
2019-04-06T17:34:57.751Z,16.97
2019-04-06T17:37:31.151Z,17.05
2019-04-06T17:40:10.136Z,13.53
2019-04-06T17:42:56.468Z,16.35
2019-04-06T17:45:32.629Z,17.12
2019-04-06T17:48:02.673Z,18.95
2019-04-06T17:50:32.654Z,17.25
2019-04-06T17:53:05.473Z,17.35
2019-04-06T17:55:50.520Z,21.27
2019-04-06T17:58:20.772Z,16.17
2019-04-06T18:00:50.737Z,16.27
2019-04-06T18:03:23.619Z,16.60
2019-04-06T18:06:05.991Z,17.07
2019-04-06T18:08:41.823Z,16.42
2019-04-06T18:11:18.212Z,16.23
2019-04-06T18:13:48.605Z,16.07
2019-04-06T18:16:17.968Z,17.42
2019-04-06T18:18:46.264Z,18.85
2019-04-06T18:21:14.512Z,18.48
2019-04-06T18:23:42.743Z,17.42
2019-04-06T18:26:11.068Z,18.67
2019-04-06T18:28:39.662Z,17.00
2019-04-06T18:31:21.597Z,15.48
2019-04-06T18:33:49.902Z,17.25
2019-04-06T18:36:18.180Z,16.35
2019-04-06T18:38:48.064Z,16.50
2019-04-06T18:41:16.287Z,19.35
2019-04-06T18:43:44.545Z,18.07
2019-04-06T18:46:15.144Z,19.40
2019-04-06T18:48:42.750Z,14.98
2019-04-06T18:51:11.252Z,17.07
2019-04-06T18:53:39.514Z,16.25
2019-04-06T18:56:07.837Z,18.32
2019-04-06T18:58:36.452Z,14.50
2019-04-06T19:01:05.459Z,17.32
2019-04-06T19:03:33.865Z,17.57
2019-04-06T19:06:02.508Z,15.13
2019-04-06T19:08:30.909Z,12.90
2019-04-06T19:10:59.187Z,14.85
2019-04-06T19:13:27.509Z,13.95
2019-04-06T19:15:55.854Z,17.42
2019-04-06T19:18:24.149Z,16.00
2019-04-06T19:20:52.707Z,13.05
2019-04-06T19:23:21.105Z,15.40
2019-04-06T19:25:49.371Z,19.57
2019-04-06T19:28:17.671Z,20.77
2019-04-06T19:30:46.287Z,14.95
2019-04-06T19:33:23.729Z,15.43
2019-04-06T19:35:44.834Z,15.13
2019-04-06T19:38:13.173Z,16.27
2019-04-06T19:40:41.479Z,12.55
2019-04-06T19:43:10.249Z,17.62
2019-04-06T19:45:39.011Z,14.38
2019-04-06T19:48:07.901Z,15.72
2019-04-06T19:50:37.074Z,15.98
2019-04-06T19:53:06.099Z,16.97
2019-04-06T19:55:35.674Z,15.75
2019-04-06T19:58:05.167Z,13.78
2019-04-06T20:00:34.770Z,12.47
2019-04-06T20:03:04.519Z,13.53
2019-04-06T20:05:37.539Z,14.18
2019-04-06T20:08:07.193Z,13.40
2019-04-06T20:10:37.422Z,12.82
2019-04-06T20:13:07.314Z,15.35
2019-04-06T20:15:36.767Z,12.05
2019-04-06T20:18:05.542Z,13.40
2019-04-06T20:20:34.430Z,13.43
2019-04-06T20:23:03.066Z,16.50
2019-04-06T20:25:31.939Z,12.93
2019-04-06T20:28:00.573Z,13.28
2019-04-06T20:30:29.195Z,14.23
2019-04-06T20:32:57.441Z,16.95
2019-04-06T20:35:25.669Z,12.35
2019-04-06T20:37:54.405Z,12.53
2019-04-06T20:40:23.302Z,13.18
2019-04-06T20:42:51.682Z,13.20
2019-04-06T20:45:20.422Z,14.63
2019-04-06T20:47:48.982Z,14.03
2019-04-06T20:50:17.996Z,16.62
2019-04-06T20:52:46.398Z,14.45
2019-04-06T20:55:14.652Z,13.03
2019-04-06T20:57:42.904Z,13.98
2019-04-06T21:00:11.160Z,11.83
2019-04-06T21:02:39.643Z,13.90
2019-04-06T21:05:07.972Z,14.75
2019-04-06T21:07:36.938Z,11.63
2019-04-06T21:10:08.689Z,12.47
2019-04-06T21:12:37.196Z,15.38
2019-04-06T21:15:17.710Z,13.25
2019-04-06T21:17:37.128Z,13.15
2019-04-06T21:20:06.510Z,14.07
2019-04-06T21:22:35.185Z,10.72
2019-04-06T21:25:03.702Z,14.33
2019-04-06T21:27:32.073Z,16.35
2019-04-06T21:30:00.708Z,15.95
2019-04-06T21:32:29.240Z,13.62
2019-04-06T21:34:58.666Z,12.75
2019-04-06T21:37:27.053Z,13.32
2019-04-06T21:39:55.297Z,10.35
2019-04-06T21:42:23.529Z,13.08
2019-04-06T21:44:51.861Z,11.30
2019-04-06T21:47:20.190Z,14.45
2019-04-06T21:49:48.962Z,15.18
2019-04-06T21:52:17.236Z,11.80
2019-04-06T21:54:45.531Z,10.08
2019-04-06T21:57:14.180Z,10.72
2019-04-06T21:59:42.535Z,10.65
2019-04-06T22:02:10.774Z,11.75
2019-04-06T22:04:39.115Z,8.95
2019-04-06T22:07:07.548Z,9.25
2019-04-06T22:09:35.770Z,9.95
2019-04-06T22:12:04.001Z,11.28
2019-04-06T22:14:32.623Z,9.05
2019-04-06T22:17:01.592Z,11.55
2019-04-06T22:19:30.352Z,11.08
2019-04-06T22:21:58.748Z,9.68
2019-04-06T22:24:26.985Z,8.63
2019-04-06T22:26:55.215Z,7.80
2019-04-06T22:29:23.859Z,11.68
2019-04-06T22:31:52.118Z,10.15
2019-04-06T22:34:20.353Z,6.08
2019-04-06T22:36:48.560Z,10.40
2019-04-06T22:39:16.801Z,8.48
2019-04-06T22:41:45.033Z,9.05
2019-04-06T22:44:13.264Z,8.08
2019-04-06T22:46:41.848Z,9.30
2019-04-06T22:49:10.152Z,10.45
2019-04-06T22:51:38.954Z,11.33
2019-04-06T22:54:07.989Z,7.92
2019-04-06T22:56:36.418Z,6.62
2019-04-06T22:59:04.666Z,10.18
2019-04-06T23:01:34.645Z,8.50
2019-04-06T23:04:04.644Z,8.28
2019-04-06T23:06:34.509Z,6.50
2019-04-06T23:09:03.234Z,5.97
2019-04-06T23:11:31.648Z,11.33
2019-04-06T23:13:59.905Z,6.17
2019-04-06T23:16:28.638Z,10.48
2019-04-06T23:18:57.177Z,10.30
2019-04-06T23:21:25.900Z,7.60
2019-04-06T23:23:54.225Z,10.23
2019-04-06T23:26:22.455Z,7.25
2019-04-06T23:28:50.668Z,7.15
2019-04-06T23:31:18.901Z,6.80
2019-04-06T23:33:47.221Z,11.48
2019-04-06T23:36:15.537Z,8.70
2019-04-06T23:38:44.250Z,8.93
2019-04-06T23:41:12.594Z,7.95
2019-04-06T23:43:40.788Z,7.10
2019-04-06T23:46:09.021Z,6.95
2019-04-06T23:48:37.272Z,9.00
2019-04-06T23:51:05.553Z,8.53
2019-04-06T23:53:34.378Z,8.98
2019-04-06T23:56:02.722Z,7.12
2019-04-06T23:58:31.396Z,6.72
